Flight Track Log - Related Links

Times and Time Zones

All times are in EDT time to prevent confusion due to time zone crossing. See the JBU1781 flight status page for this flight to view local times or setup timezone preferences in your user account.

Time Position Orientation Groundspeed Altitude Reporting Facility
EDT Latitude Longitude Course Direction KTS MPH feet Rate Location/Type
Wed 02:09:56 PM 28.4167 -81.3167 127° Southeast 171 197 600  Level Orlando TRACON
Wed 02:11:09 PM 28.3667 -81.3000 164° South 222 255 2,700 2,000 Climbing Orlando TRACON
Wed 02:12:00 PM 28.2136 -81.0537 134° Southeast  Level Estimated
Wed 02:12:08 PM 28.3333 -81.2500 127° Southeast 272 313 5,000  Level Orlando TRACON
Wed 02:13:00 PM 28.1322 -80.9806 142° Southeast  Level FlightAware Approximate
Wed 02:13:52 PM 28.3400 -81.1069 87° East 288 331 6,100  Level Miami Center
Wed 02:14:00 PM 28.0603 -80.8955 139° Southeast  Level Estimated
Wed 02:14:52 PM 28.3511 -81.0178 82° East 283 326 9,200  Level Miami Center
Wed 02:15:00 PM 27.9884 -80.8106 127° Southeast  Level Estimated
Wed 02:15:52 PM 28.3456 -80.9161 94° East 290 334 11,800  Level Miami Center
Wed 02:16:52 PM 28.3419 -80.8217 92° East 321 369 13,700 1,900 Climbing Miami Center
Wed 02:17:52 PM 28.3369 -80.7014 93° East 344 396 15,600 2,050 Climbing Miami Center
Wed 02:18:52 PM 28.3339 -80.5808 92° East 365 420 17,800 2,000 Climbing Miami Center
Wed 02:19:52 PM 28.3283 -80.4628 93° East 372 428 19,600 1,500 Climbing Miami Center
Wed 02:20:52 PM 28.2786 -80.3739 122° Southeast 354 407 20,800 1,100 Climbing Miami Center
Wed 02:21:52 PM 28.2011 -80.2986 139° Southeast 359 413 21,800 1,100 Climbing Miami Center
Wed 02:22:52 PM 28.1156 -80.2089 137° Southeast 381 438 23,000 600 Climbing Miami Center
Wed 02:23:52 PM 28.0297 -80.1286 140° Southeast 395 455 23,000  Level Miami Center
Wed 02:24:52 PM 27.9419 -80.0417 139° Southeast 412 474 23,000  Level Miami Center
Wed 02:25:52 PM 27.8519 -79.9522 139° Southeast 412 474 23,000  Level Miami Center
Wed 02:26:52 PM 27.7783 -79.8775 138° Southeast 412 474 23,000  Level Miami Center
Wed 02:27:52 PM 27.6822 -79.7833 139° Southeast 407 468 23,000  Level Miami Center
Wed 02:28:52 PM 27.5942 -79.6992 140° Southeast 407 468 23,000  Level Miami Center
Wed 02:29:52 PM 27.5081 -79.6150 139° Southeast 412 474 23,000  Level Miami Center
Wed 02:30:52 PM 27.4281 -79.5358 139° Southeast 419 482 23,000  Level Miami Center
Wed 02:31:52 PM 27.3397 -79.4497 139° Southeast 419 482 23,000  Level Miami Center
Wed 02:32:52 PM 27.2453 -79.3589 139° Southeast 419 482 23,000  Level Miami Center
Wed 02:33:52 PM 27.1569 -79.2753 140° Southeast 419 482 23,000  Level Miami Center
Wed 02:34:52 PM 27.0686 -79.1869 138° Southeast 419 482 23,000  Level Miami Center
Wed 02:35:52 PM 26.9822 -79.1061 140° Southeast 419 482 23,000  Level Miami Center
Wed 02:36:52 PM 26.8917 -79.0206 140° Southeast 428 493 23,000  Level Miami Center
Wed 02:37:52 PM 26.8008 -78.9328 139° Southeast 428 493 23,000  Level Miami Center
Wed 02:38:52 PM 26.7164 -78.8544 140° Southeast 421 484 23,000  Level Miami Center
Wed 02:39:52 PM 26.6233 -78.7786 144° Southeast 411 473 23,000  Level Miami Center
Wed 02:40:52 PM 26.5367 -78.7097 145° Southeast 401 461 23,000  Level Miami Center
Wed 02:41:52 PM 26.4708 -78.6158 128° Southeast 401 461 23,000  Level Miami Center
Wed 02:42:52 PM 26.3989 -78.5267 132° Southeast 396 456 23,000  Level Miami Center
Wed 02:43:52 PM 26.3308 -78.4261 127° Southeast 396 456 23,000  Level Miami Center
Wed 02:44:52 PM 26.2631 -78.3278 128° Southeast 401 461 23,000  Level Miami Center
Wed 02:45:52 PM 26.1931 -78.2272 128° Southeast 406 467 23,000  Level Miami Center
Wed 02:46:52 PM 26.1250 -78.1247 126° Southeast 406 467 23,000  Level Miami Center
Wed 02:47:52 PM 26.0547 -78.0244 128° Southeast 406 467 23,000 -500 Level Miami Center
Wed 02:48:52 PM 25.9864 -77.9244 127° Southeast 406 467 22,000 -1,550 Descending Miami Center
Wed 02:49:52 PM 25.9183 -77.8269 128° Southeast 406 467 19,900 -2,100 Descending Miami Center
Wed 02:50:52 PM 25.8519 -77.7269 126° Southeast 401 461 17,800 -2,000 Descending Miami Center
Wed 02:51:52 PM 25.7919 -77.6389 127° Southeast 389 448 15,900 -1,800 Descending Miami Center
Wed 02:52:52 PM 25.7275 -77.5647 134° Southeast 358 412 14,200 -2,050 Descending Miami Center
Wed 02:53:52 PM 25.6439 -77.5619 178° South 303 349 11,800 -2,400 Descending Miami Center

Login

Don't have an account? Register now (free) for customized features, flight alerts, and more!